Time;durP1;ratioP1;P1;durP2;ratioP2;P2;SDS_P1;SDS_P2;PMS_P1;PMS_P2;Temp;Humidity;BMP_temperature;BMP_pressure;BME280_temperature;BME280_humidity;BME280_pressure;Samples;Min_cycle;Max_cycle;Signal;HPM_P1;HPM_P2
2023/10/03 00:00:56;;;;;;;27.17;14.67;;;18.20;99.90;;;;;;5018829;28;20404;-83
2023/10/03 00:03:21;;;;;;;29.00;14.77;;;18.20;99.90;;;;;;5018190;28;20406;-84
2023/10/03 00:05:51;;;;;;;31.73;16.03;;;18.20;99.90;;;;;;5018044;28;20396;-84
2023/10/03 00:08:18;;;;;;;26.10;14.70;;;18.20;99.90;;;;;;5018372;28;20174;-84
2023/10/03 00:10:45;;;;;;;27.33;14.33;;;18.30;99.90;;;;;;5030470;28;20888;-83
2023/10/03 00:13:12;;;;;;;24.97;14.17;;;18.30;99.90;;;;;;5016120;28;20438;-83
2023/10/03 00:15:43;;;;;;;25.93;13.50;;;18.30;99.90;;;;;;5019388;28;20447;-84
2023/10/03 00:18:09;;;;;;;29.07;15.63;;;18.30;99.90;;;;;;5015884;28;20428;-83
2023/10/03 00:20:35;;;;;;;29.47;13.70;;;18.30;99.90;;;;;;4997896;28;20504;-83
2023/10/03 00:23:00;;;;;;;25.77;14.27;;;18.40;99.90;;;;;;4981806;28;20493;-83
2023/10/03 00:25:26;;;;;;;28.10;14.07;;;18.40;99.90;;;;;;5014946;28;20577;-83
2023/10/03 00:27:55;;;;;;;33.87;15.03;;;18.50;99.90;;;;;;4997870;28;20187;-84
2023/10/03 00:30:23;;;;;;;27.50;14.80;;;18.50;99.90;;;;;;5013655;28;20819;-84
2023/10/03 00:32:49;;;;;;;26.37;14.00;;;18.50;99.90;;;;;;5014193;28;20461;-83
2023/10/03 00:35:16;;;;;;;32.20;15.07;;;18.50;99.90;;;;;;5013614;28;20457;-83
2023/10/03 00:37:44;;;;;;;29.00;15.03;;;18.60;99.90;;;;;;5013514;28;20425;-84
2023/10/03 00:42:49;;;;;;;29.23;14.20;;;18.60;99.90;;;;;;4999150;28;20399;-83
2023/10/03 00:45:22;;;;;;;24.17;13.40;;;18.70;99.90;;;;;;5027741;28;20941;-83
2023/10/03 00:47:48;;;;;;;30.23;15.57;;;18.70;99.90;;;;;;5002350;28;20423;-83
2023/10/03 00:50:20;;;;;;;26.90;14.17;;;18.70;99.90;;;;;;5033330;28;20780;-83
2023/10/03 00:52:55;;;;;;;25.53;13.47;;;18.70;99.90;;;;;;5033561;28;20401;-83
2023/10/03 00:55:32;;;;;;;25.03;13.97;;;18.70;99.90;;;;;;5033418;28;20526;-83
2023/10/03 01:00:31;;;;;;;23.90;12.87;;;18.70;99.90;;;;;;5033011;28;20437;-83
2023/10/03 01:02:57;;;;;;;28.77;14.23;;;18.70;99.90;;;;;;5033220;28;20400;-83
2023/10/03 01:05:23;;;;;;;24.90;14.00;;;18.60;99.90;;;;;;5032785;28;20404;-83
2023/10/03 01:07:50;;;;;;;29.93;14.23;;;18.60;99.90;;;;;;5032794;28;20252;-83
2023/10/03 01:10:19;;;;;;;25.40;13.20;;;18.60;99.90;;;;;;5033046;28;20425;-82
2023/10/03 01:12:49;;;;;;;32.57;13.90;;;18.60;99.90;;;;;;5016550;28;20232;-83
2023/10/03 01:15:16;;;;;;;26.70;14.10;;;18.50;99.90;;;;;;5032567;28;20465;-83
2023/10/03 01:17:47;;;;;;;26.03;14.00;;;18.50;99.90;;;;;;5016274;28;20455;-83
2023/10/03 01:20:17;;;;;;;25.60;14.07;;;18.40;99.90;;;;;;5017177;28;20441;-83
2023/10/03 01:22:48;;;;;;;26.77;13.03;;;18.40;99.90;;;;;;5016400;28;20429;-83
2023/10/03 01:25:15;;;;;;;22.03;13.77;;;18.40;99.90;;;;;;5016470;28;20839;-83
2023/10/03 01:27:40;;;;;;;26.00;12.70;;;18.40;99.90;;;;;;5016095;28;20429;-83
2023/10/03 01:30:08;;;;;;;26.63;14.23;;;18.40;99.90;;;;;;5032734;28;20499;-83
2023/10/03 01:32:37;;;;;;;29.10;13.80;;;18.40;99.90;;;;;;5016169;28;20193;-83
2023/10/03 01:35:08;;;;;;;27.00;13.63;;;18.40;99.90;;;;;;5033785;28;20500;-83
2023/10/03 01:37:34;;;;;;;23.77;13.00;;;18.40;99.90;;;;;;5032359;28;20822;-83
2023/10/03 01:39:59;;;;;;;22.90;13.10;;;18.40;99.90;;;;;;5032577;28;20475;-83
2023/10/03 01:42:25;;;;;;;21.60;12.90;;;18.40;99.90;;;;;;4999613;28;20182;-83
2023/10/03 01:44:50;;;;;;;29.43;13.23;;;18.40;99.90;;;;;;5000706;28;20185;-83
2023/10/03 01:47:17;;;;;;;25.70;13.00;;;18.40;99.90;;;;;;4999877;28;20725;-83
2023/10/03 01:49:42;;;;;;;20.80;12.93;;;18.40;99.90;;;;;;5016900;28;20190;-83
2023/10/03 01:52:08;;;;;;;21.43;11.80;;;18.40;99.90;;;;;;5033401;28;20831;-83
2023/10/03 01:54:34;;;;;;;24.53;12.17;;;18.50;99.90;;;;;;5016125;28;20201;-83
2023/10/03 01:57:00;;;;;;;21.77;12.97;;;18.50;99.90;;;;;;5029585;28;20565;-83
2023/10/03 01:59:26;;;;;;;26.13;13.70;;;18.50;99.90;;;;;;4996211;28;20401;-83
2023/10/03 02:01:52;;;;;;;24.10;12.60;;;18.50;99.90;;;;;;5012898;28;20814;-83
2023/10/03 02:04:17;;;;;;;22.63;11.50;;;18.50;99.90;;;;;;4996374;28;20428;-83
2023/10/03 02:06:44;;;;;;;24.63;13.20;;;18.60;99.90;;;;;;5012047;28;20193;-83
2023/10/03 02:09:10;;;;;;;25.73;13.83;;;18.60;99.90;;;;;;5013494;28;20171;-83
2023/10/03 02:11:37;;;;;;;24.80;12.70;;;18.60;99.90;;;;;;5013692;28;20414;-83
2023/10/03 02:14:07;;;;;;;22.27;12.57;;;18.60;99.90;;;;;;5012770;28;20843;-83
2023/10/03 02:16:41;;;;;;;30.20;13.50;;;18.60;99.90;;;;;;5011801;28;20474;-83
2023/10/03 02:19:06;;;;;;;23.03;11.60;;;18.60;99.90;;;;;;4998098;28;20763;-84
2023/10/03 02:21:32;;;;;;;25.83;12.20;;;18.60;99.90;;;;;;5012231;28;20530;-83
2023/10/03 02:23:57;;;;;;;22.27;12.60;;;18.70;99.90;;;;;;5012430;28;20628;-83
2023/10/03 02:26:28;;;;;;;23.93;11.20;;;18.70;99.90;;;;;;4999813;28;20186;-83
2023/10/03 02:28:54;;;;;;;23.60;12.20;;;18.80;99.90;;;;;;5001004;28;20170;-83
2023/10/03 02:31:20;;;;;;;23.10;12.20;;;18.80;99.90;;;;;;5012943;28;20771;-83
2023/10/03 02:33:46;;;;;;;23.80;12.50;;;18.70;99.90;;;;;;5013785;28;20182;-83
2023/10/03 02:36:12;;;;;;;26.10;12.47;;;18.70;99.90;;;;;;5019709;28;20539;-83
2023/10/03 02:38:38;;;;;;;22.63;12.93;;;18.80;99.90;;;;;;5026065;28;20766;-83
2023/10/03 02:41:07;;;;;;;19.30;11.50;;;18.80;99.90;;;;;;5015949;28;20564;-83
2023/10/03 02:43:36;;;;;;;20.37;11.60;;;18.90;99.90;;;;;;4999836;28;20431;-84
2023/10/03 02:46:11;;;;;;;21.23;11.60;;;18.80;99.90;;;;;;5015416;28;20973;-83
2023/10/03 02:48:37;;;;;;;23.93;11.93;;;18.90;99.90;;;;;;5015579;28;20436;-83
2023/10/03 02:51:02;;;;;;;20.63;11.87;;;18.90;99.90;;;;;;5019880;28;20425;-83
2023/10/03 02:53:29;;;;;;;20.47;11.27;;;18.80;99.90;;;;;;5018666;28;20186;-84
2023/10/03 02:55:54;;;;;;;23.20;11.57;;;18.90;99.90;;;;;;5036803;28;20205;-83
2023/10/03 02:58:20;;;;;;;27.03;11.87;;;18.90;99.90;;;;;;5016987;28;20453;-82
2023/10/03 03:00:53;;;;;;;19.90;10.97;;;18.90;99.90;;;;;;5015852;28;20222;-83
2023/10/03 03:03:19;;;;;;;21.13;11.33;;;19.00;99.90;;;;;;5016805;28;20397;-83
2023/10/03 03:05:48;;;;;;;24.83;11.47;;;19.00;99.90;;;;;;5016457;28;20395;-83
2023/10/03 03:10:42;;;;;;;19.33;11.40;;;19.00;99.90;;;;;;5018944;28;20494;-83
2023/10/03 03:13:16;;;;;;;20.40;11.80;;;18.90;99.90;;;;;;5037975;28;20798;-83
2023/10/03 03:15:52;;;;;;;18.87;10.73;;;19.00;99.90;;;;;;5019544;28;20218;-84
2023/10/03 03:18:21;;;;;;;19.97;11.43;;;19.00;99.90;;;;;;5004646;28;20410;-83
2023/10/03 03:20:57;;;;;;;21.77;11.43;;;19.10;99.90;;;;;;5035901;28;20387;-83
2023/10/03 03:23:31;;;;;;;20.60;10.40;;;19.20;99.90;;;;;;5035186;28;20420;-83
2023/10/03 03:26:17;;;;;;;18.40;9.90;;;19.20;99.90;;;;;;5035033;28;20928;-83
2023/10/03 03:28:44;;;;;;;17.33;10.50;;;19.20;99.90;;;;;;5020543;28;20396;-83
2023/10/03 03:31:20;;;;;;;16.30;9.07;;;19.30;99.90;;;;;;5018393;28;20460;-83
2023/10/03 03:33:51;;;;;;;15.37;8.83;;;19.30;99.90;;;;;;5034861;28;20420;-83
2023/10/03 03:36:18;;;;;;;20.23;9.40;;;19.30;99.90;;;;;;5035562;28;20961;-83
2023/10/03 03:38:46;;;;;;;18.57;9.80;;;19.40;99.90;;;;;;5035224;28;20791;-83
2023/10/03 03:41:12;;;;;;;16.23;8.27;;;19.60;99.90;;;;;;5035731;28;20410;-83
2023/10/03 03:43:38;;;;;;;14.60;9.23;;;19.80;99.90;;;;;;5017773;28;20440;-83
2023/10/03 03:46:04;;;;;;;15.50;8.23;;;19.80;99.90;;;;;;4986675;28;20865;-82
2023/10/03 03:48:33;;;;;;;16.80;8.90;;;19.90;99.90;;;;;;5015010;28;20389;-84
2023/10/03 03:50:59;;;;;;;15.80;8.20;;;19.90;99.90;;;;;;5011448;28;20403;-83
2023/10/03 03:53:25;;;;;;;17.93;9.73;;;20.00;99.90;;;;;;5014765;28;20897;-83
2023/10/03 03:55:51;;;;;;;15.93;8.87;;;20.00;99.90;;;;;;5030913;28;20466;-83
2023/10/03 03:58:18;;;;;;;15.17;8.53;;;20.10;99.90;;;;;;5014859;28;20189;-82
2023/10/03 04:00:49;;;;;;;19.03;8.67;;;20.20;99.90;;;;;;5030829;28;20632;-84
2023/10/03 04:03:15;;;;;;;15.93;8.83;;;20.10;99.90;;;;;;5014615;28;20507;-83
2023/10/03 04:05:41;;;;;;;15.70;8.93;;;20.10;99.90;;;;;;5030751;28;20535;-83
2023/10/03 04:08:08;;;;;;;12.97;7.90;;;20.20;99.90;;;;;;5017728;28;20197;-83
2023/10/03 04:10:36;;;;;;;14.70;8.30;;;20.20;99.90;;;;;;5012576;28;20922;-83
2023/10/03 04:13:06;;;;;;;20.93;10.00;;;20.20;99.90;;;;;;4998199;28;20408;-83
2023/10/03 04:15:32;;;;;;;14.67;8.17;;;20.20;99.90;;;;;;5014045;28;20456;-84
2023/10/03 04:17:58;;;;;;;15.47;9.07;;;20.10;99.90;;;;;;4997848;28;20422;-83
2023/10/03 04:20:35;;;;;;;17.43;8.43;;;20.00;99.90;;;;;;5014057;28;20508;-83
2023/10/03 04:23:03;;;;;;;15.90;8.80;;;20.10;99.90;;;;;;4999581;28;20429;-82
2023/10/03 04:25:30;;;;;;;16.77;9.00;;;20.00;99.90;;;;;;5015542;28;20798;-81
2023/10/03 04:27:56;;;;;;;16.33;9.80;;;20.00;99.90;;;;;;5015133;28;20771;-83
2023/10/03 04:30:26;;;;;;;16.70;8.73;;;19.90;99.90;;;;;;4997770;28;20415;-83
2023/10/03 04:32:54;;;;;;;16.53;9.40;;;19.90;99.90;;;;;;5030642;28;20384;-83
2023/10/03 04:35:22;;;;;;;16.40;9.50;;;19.90;99.90;;;;;;5034879;28;20483;-83
2023/10/03 04:37:51;;;;;;;16.40;8.63;;;19.90;99.90;;;;;;5033407;28;20734;-82
2023/10/03 04:40:22;;;;;;;15.00;8.53;;;19.70;99.90;;;;;;5004600;28;20455;-82
2023/10/03 04:42:55;;;;;;;19.70;9.57;;;19.60;99.90;;;;;;5035896;28;20869;-83
2023/10/03 04:45:22;;;;;;;18.37;9.13;;;19.50;99.90;;;;;;5034746;28;20890;-83
2023/10/03 04:47:48;;;;;;;17.07;9.07;;;19.60;99.90;;;;;;5016806;28;20405;-83
2023/10/03 04:50:18;;;;;;;13.90;8.27;;;19.70;99.90;;;;;;5016853;28;20403;-83
2023/10/03 04:52:48;;;;;;;14.63;7.00;;;20.00;99.90;;;;;;5034344;28;20417;-83
2023/10/03 04:55:19;;;;;;;14.93;8.20;;;20.20;99.90;;;;;;5033207;28;20491;-83
2023/10/03 04:57:46;;;;;;;15.10;8.40;;;20.20;99.90;;;;;;5032129;28;20443;-83
2023/10/03 05:00:15;;;;;;;18.63;8.03;;;20.50;99.90;;;;;;5016513;28;20432;-83
2023/10/03 05:02:47;;;;;;;14.47;7.43;;;20.50;99.90;;;;;;5032944;28;20889;-83
2023/10/03 05:05:32;;;;;;;11.10;7.50;;;;;;;;;;5017130;28;20452;-83
2023/10/03 05:07:58;;;;;;;12.80;7.50;;;20.90;99.90;;;;;;5034134;28;20416;-82
2023/10/03 05:10:25;;;;;;;16.10;7.07;;;20.90;99.90;;;;;;5016828;28;20407;-83
2023/10/03 05:12:52;;;;;;;13.33;7.27;;;20.90;99.90;;;;;;5016173;28;20431;-83
2023/10/03 05:15:18;;;;;;;15.10;7.57;;;21.10;99.90;;;;;;5032495;28;20501;-83
2023/10/03 05:17:45;;;;;;;32.57;8.47;;;21.10;99.90;;;;;;5032645;28;20813;-83
2023/10/03 05:20:13;;;;;;;17.93;7.90;;;21.00;99.90;;;;;;5015854;28;20421;-83
2023/10/03 05:22:40;;;;;;;18.07;8.50;;;21.10;99.90;;;;;;5016288;28;20766;-83
2023/10/03 05:25:11;;;;;;;18.87;7.97;;;21.20;99.90;;;;;;5032580;28;20398;-83
2023/10/03 05:27:37;;;;;;;25.30;8.40;;;21.00;99.90;;;;;;5033854;28;20750;-83
2023/10/03 05:30:05;;;;;;;17.43;8.20;;;21.10;99.90;;;;;;5033862;28;20508;-83
2023/10/03 05:32:31;;;;;;;19.00;8.07;;;21.10;99.90;;;;;;5016741;28;20424;-84
2023/10/03 05:34:58;;;;;;;19.23;9.17;;;21.00;99.90;;;;;;5033623;28;20747;-84
2023/10/03 05:37:25;;;;;;;14.60;8.60;;;20.90;99.90;;;;;;5016464;28;20425;-83
2023/10/03 05:39:50;;;;;;;21.90;7.07;;;20.90;99.90;;;;;;5032392;28;20413;-83
2023/10/03 05:42:17;;;;;;;16.30;7.20;;;21.00;99.90;;;;;;4999815;28;20428;-84
2023/10/03 05:44:44;;;;;;;16.00;8.43;;;21.00;99.90;;;;;;5033073;28;20277;-84
2023/10/03 05:47:09;;;;;;;13.60;8.20;;;21.00;99.90;;;;;;5015837;28;20472;-83
2023/10/03 05:49:35;;;;;;;19.33;9.47;;;21.00;99.90;;;;;;5016082;28;20423;-83
2023/10/03 05:52:00;;;;;;;18.33;8.23;;;21.00;99.90;;;;;;5015938;28;20201;-83
2023/10/03 05:54:26;;;;;;;11.77;7.57;;;20.90;99.90;;;;;;5033152;28;20533;-84
2023/10/03 05:56:54;;;;;;;12.40;7.43;;;20.90;99.90;;;;;;5031508;28;20229;-84
2023/10/03 05:59:20;;;;;;;21.43;7.63;;;21.00;99.90;;;;;;5016103;28;20420;-83
2023/10/03 06:01:47;;;;;;;15.70;7.50;;;20.90;99.90;;;;;;5015611;28;20380;-83
2023/10/03 06:04:13;;;;;;;13.00;8.10;;;20.90;99.90;;;;;;5032450;28;20475;-83
2023/10/03 06:06:39;;;;;;;17.17;7.77;;;20.90;99.90;;;;;;5015666;28;20421;-84
2023/10/03 06:09:04;;;;;;;14.40;7.90;;;20.90;99.90;;;;;;5037498;28;20413;-84
2023/10/03 06:11:30;;;;;;;15.40;7.87;;;20.90;99.90;;;;;;5022309;28;20653;-84
2023/10/03 06:13:58;;;;;;;10.33;6.93;;;20.90;99.90;;;;;;5039383;28;20538;-84
2023/10/03 06:16:26;;;;;;;13.60;7.10;;;20.90;99.90;;;;;;5039528;28;20263;-83
2023/10/03 06:18:52;;;;;;;10.60;7.20;;;20.90;99.90;;;;;;5022334;28;20391;-85
2023/10/03 06:21:17;;;;;;;14.50;7.20;;;20.90;99.90;;;;;;5022171;28;20413;-85
2023/10/03 06:23:46;;;;;;;13.23;8.00;;;20.90;99.90;;;;;;5039665;28;20181;-85
2023/10/03 06:26:15;;;;;;;17.27;7.97;;;20.90;99.90;;;;;;5006527;28;20899;-84
2023/10/03 06:28:43;;;;;;;14.60;6.77;;;21.00;99.90;;;;;;5022668;28;20425;-84
2023/10/03 06:31:10;;;;;;;12.37;6.80;;;20.80;99.90;;;;;;5038718;28;20383;-86
2023/10/03 06:33:37;;;;;;;19.63;8.70;;;20.90;99.90;;;;;;5038588;28;20416;-84
2023/10/03 06:36:06;;;;;;;15.47;7.63;;;20.80;99.90;;;;;;5039686;28;20491;-84
2023/10/03 06:38:33;;;;;;;13.87;7.30;;;20.80;99.90;;;;;;5038475;28;20888;-84
2023/10/03 06:40:59;;;;;;;13.37;7.27;;;20.90;99.90;;;;;;5042331;28;20409;-84
2023/10/03 06:43:25;;;;;;;17.13;8.00;;;20.80;99.90;;;;;;5023115;28;20445;-87
2023/10/03 06:45:50;;;;;;;11.63;7.40;;;20.80;99.90;;;;;;5038521;28;20534;-87
2023/10/03 06:48:16;;;;;;;13.93;7.77;;;20.70;99.90;;;;;;5023200;28;20205;-86
2023/10/03 06:50:42;;;;;;;15.27;7.50;;;20.70;99.90;;;;;;5022954;28;20273;-86
2023/10/03 06:53:09;;;;;;;20.27;8.00;;;20.60;99.90;;;;;;5023177;28;20182;-86
2023/10/03 06:55:35;;;;;;;9.80;6.83;;;20.60;99.90;;;;;;5042455;28;20472;-87
2023/10/03 06:58:02;;;;;;;7.67;5.90;;;20.60;99.90;;;;;;5024099;28;20788;-86
2023/10/03 07:00:30;;;;;;;17.90;5.47;;;20.50;99.90;;;;;;5040964;28;20424;-87
2023/10/03 07:02:56;;;;;;;11.43;6.03;;;20.40;99.90;;;;;;5040675;28;20919;-86
2023/10/03 07:05:21;;;;;;;10.47;6.10;;;20.40;99.90;;;;;;5040222;28;20408;-86
2023/10/03 07:07:47;;;;;;;13.40;6.57;;;20.30;99.90;;;;;;5022413;28;20185;-87
2023/10/03 07:10:13;;;;;;;13.73;6.10;;;20.20;99.90;;;;;;5038720;28;20182;-86
2023/10/03 07:12:39;;;;;;;8.03;5.17;;;20.10;99.90;;;;;;5040277;28;20405;-87
2023/10/03 07:15:08;;;;;;;11.73;4.70;;;20.10;99.90;;;;;;5038642;28;20193;-85
2023/10/03 07:17:35;;;;;;;7.47;5.10;;;20.00;99.90;;;;;;5038508;28;20185;-86
2023/10/03 07:20:05;;;;;;;6.70;5.47;;;19.90;99.90;;;;;;5036678;28;20401;-86
2023/10/03 07:22:31;;;;;;;6.80;5.30;;;19.90;99.90;;;;;;5035366;28;20405;-86
2023/10/03 07:24:57;;;;;;;6.67;4.50;;;19.80;99.90;;;;;;5036420;28;20440;-86
2023/10/03 07:27:23;;;;;;;9.27;5.17;;;19.80;99.90;;;;;;5018994;28;20463;-86
2023/10/03 07:29:49;;;;;;;9.40;5.30;;;;;;;;;;5018944;28;20205;-86
2023/10/03 07:32:15;;;;;;;14.13;5.30;;;19.60;99.90;;;;;;5019007;28;20285;-86
2023/10/03 07:34:43;;;;;;;11.33;6.23;;;19.60;99.90;;;;;;5035774;28;20488;-85
2023/10/03 07:37:09;;;;;;;12.07;5.77;;;19.60;99.90;;;;;;5019432;28;20210;-86
2023/10/03 07:39:35;;;;;;;13.70;6.30;;;19.60;99.90;;;;;;5035980;28;20459;-86
2023/10/03 07:42:01;;;;;;;12.23;5.47;;;19.70;99.90;;;;;;5035578;28;20392;-86
2023/10/03 07:44:27;;;;;;;9.07;5.67;;;19.70;99.90;;;;;;5037293;28;20166;-86
2023/10/03 07:46:53;;;;;;;17.30;5.77;;;19.70;99.90;;;;;;5035814;28;20856;-86
2023/10/03 07:49:18;;;;;;;12.23;5.00;;;19.70;99.90;;;;;;5030417;28;20425;-86
2023/10/03 07:51:45;;;;;;;13.40;5.43;;;19.70;99.90;;;;;;5016001;28;20189;-86
2023/10/03 07:54:11;;;;;;;13.63;4.80;;;19.80;99.90;;;;;;5016750;28;20229;-86
2023/10/03 07:56:41;;;;;;;12.13;5.10;;;19.90;99.90;;;;;;5016356;28;20461;-86
2023/10/03 07:59:07;;;;;;;11.33;4.97;;;19.90;99.90;;;;;;5015123;28;20213;-86
2023/10/03 08:01:33;;;;;;;14.27;5.87;;;19.80;99.90;;;;;;5015607;28;20789;-86
2023/10/03 08:03:58;;;;;;;8.43;5.07;;;19.90;99.90;;;;;;4998903;28;20179;-84
2023/10/03 08:06:33;;;;;;;8.37;4.80;;;19.90;99.90;;;;;;5015401;28;20241;-86
2023/10/03 08:08:59;;;;;;;6.30;4.83;;;20.00;99.90;;;;;;5015945;28;20556;-86
2023/10/03 08:11:32;;;;;;;12.00;5.03;;;20.10;99.90;;;;;;5015694;28;20928;-86
2023/10/03 08:14:13;;;;;;;6.83;4.03;;;20.30;99.90;;;;;;5016356;28;20901;-86
2023/10/03 08:16:43;;;;;;;10.60;5.00;;;20.30;99.90;;;;;;5016762;28;20529;-86
2023/10/03 08:19:25;;;;;;;6.10;4.33;;;20.40;99.90;;;;;;5016481;28;20388;-86
2023/10/03 08:21:54;;;;;;;4.20;3.40;;;20.40;99.90;;;;;;5015317;28;20425;-86
2023/10/03 08:24:28;;;;;;;6.80;3.93;;;20.50;99.90;;;;;;5000155;28;20437;-87
2023/10/03 08:27:01;;;;;;;7.70;4.00;;;20.50;99.90;;;;;;5001484;28;20422;-86
2023/10/03 08:29:27;;;;;;;8.30;3.70;;;20.60;99.90;;;;;;5030638;28;20448;-85
2023/10/03 08:31:57;;;;;;;6.10;3.40;;;20.70;99.90;;;;;;5029528;28;20822;-86
2023/10/03 08:34:27;;;;;;;8.53;3.73;;;20.60;99.90;;;;;;5014246;28;20190;-84
2023/10/03 08:36:59;;;;;;;5.33;4.10;;;20.50;99.90;;;;;;5030696;28;20556;-85
2023/10/03 08:39:26;;;;;;;6.73;3.43;;;20.50;99.90;;;;;;5015208;28;20422;-86
2023/10/03 08:42:12;;;;;;;5.23;3.40;;;20.60;99.90;;;;;;5014575;28;20429;-86
2023/10/03 08:44:51;;;;;;;4.70;3.50;;;20.60;99.90;;;;;;5016242;28;20783;-85
2023/10/03 08:47:29;;;;;;;3.97;3.30;;;20.60;99.90;;;;;;5014320;28;20451;-85
2023/10/03 08:50:34;;;;;;;6.37;3.30;;;20.60;99.90;;;;;;5016710;28;20773;-86
2023/10/03 08:53:13;;;;;;;3.67;3.37;;;20.40;99.90;;;;;;5015388;28;20418;-86
2023/10/03 08:55:43;;;;;;;3.50;3.07;;;20.20;99.90;;;;;;5015458;28;20888;-86
2023/10/03 08:58:13;;;;;;;5.33;3.37;;;20.30;99.90;;;;;;5015824;28;20381;-86
2023/10/03 09:00:47;;;;;;;5.30;3.50;;;20.30;99.90;;;;;;5015807;28;20936;-85
2023/10/03 09:03:14;;;;;;;6.43;3.83;;;20.40;99.90;;;;;;5016520;28;20451;-86
2023/10/03 09:05:41;;;;;;;5.60;3.47;;;20.30;99.90;;;;;;5032403;28;20910;-86
2023/10/03 09:08:14;;;;;;;4.20;3.33;;;20.40;99.90;;;;;;5020690;28;20426;-87
2023/10/03 09:10:55;;;;;;;3.80;2.83;;;20.40;99.90;;;;;;5023975;28;20384;-86
2023/10/03 09:13:27;;;;;;;8.70;3.07;;;;;;;;;;5024013;28;20460;-86
2023/10/03 09:16:08;;;;;;;6.53;2.90;;;20.20;99.90;;;;;;5033987;28;20472;-85
2023/10/03 09:18:42;;;;;;;7.27;3.10;;;20.10;99.90;;;;;;5033594;28;20471;-86
2023/10/03 09:21:14;;;;;;;7.57;3.00;;;20.10;99.90;;;;;;5033641;28;20858;-86
2023/10/03 09:24:14;;;;;;;10.67;3.07;;;20.10;99.90;;;;;;5035322;28;20412;-85
2023/10/03 09:26:47;;;;;;;4.83;2.90;;;20.00;99.90;;;;;;5019710;28;20794;-85
2023/10/03 09:29:29;;;;;;;5.67;4.07;;;20.10;99.90;;;;;;5034919;28;20401;-86
2023/10/03 09:31:59;;;;;;;7.80;3.77;;;20.10;99.90;;;;;;5033610;28;20823;-86
2023/10/03 09:34:30;;;;;;;4.30;2.90;;;20.10;99.90;;;;;;5033744;28;20427;-86
2023/10/03 09:37:02;;;;;;;4.50;2.73;;;20.20;99.90;;;;;;5033502;28;20823;-85
2023/10/03 09:39:29;;;;;;;5.67;3.17;;;20.20;99.90;;;;;;5034994;28;20716;-86
2023/10/03 09:41:57;;;;;;;4.73;2.97;;;20.20;99.90;;;;;;5033906;28;20391;-85
2023/10/03 09:44:32;;;;;;;4.33;3.47;;;20.20;99.90;;;;;;5033035;28;20841;-85
2023/10/03 09:47:06;;;;;;;3.90;3.40;;;20.20;99.90;;;;;;5032809;28;20455;-85
2023/10/03 09:49:38;;;;;;;4.67;3.10;;;20.10;99.90;;;;;;5034404;28;20463;-85
2023/10/03 09:52:25;;;;;;;12.33;3.77;;;20.10;99.90;;;;;;5032798;28;20399;-85
2023/10/03 09:54:55;;;;;;;5.10;3.80;;;20.10;99.90;;;;;;5032993;28;20922;-85
2023/10/03 09:57:21;;;;;;;4.77;3.10;;;20.20;99.90;;;;;;5020089;28;20564;-86
2023/10/03 09:59:49;;;;;;;6.37;2.53;;;20.30;99.90;;;;;;4997749;28;20476;-86
2023/10/03 10:02:36;;;;;;;3.97;3.10;;;20.30;99.90;;;;;;5013243;28;20429;-85
2023/10/03 10:05:19;;;;;;;6.70;3.63;;;20.30;99.90;;;;;;5017860;28;20433;-85
2023/10/03 10:08:14;;;;;;;5.37;3.47;;;20.40;99.90;;;;;;5032797;28;20420;-84
2023/10/03 10:10:41;;;;;;;6.27;4.10;;;20.40;99.90;;;;;;5034675;28;20410;-85
2023/10/03 10:13:24;;;;;;;4.33;2.63;;;20.40;99.90;;;;;;5032924;28;20403;-86
2023/10/03 10:16:07;;;;;;;7.30;3.50;;;20.50;99.90;;;;;;5034177;28;20525;-86
2023/10/03 10:18:45;;;;;;;7.00;3.33;;;20.30;99.90;;;;;;5033419;28;20814;-86
2023/10/03 10:21:20;;;;;;;4.40;3.40;;;20.40;99.90;;;;;;5033298;28;20407;-86
2023/10/03 10:24:11;;;;;;;5.97;3.30;;;20.40;99.90;;;;;;5015513;28;20401;-86
2023/10/03 10:26:38;;;;;;;7.30;3.67;;;20.30;99.90;;;;;;5030845;28;20426;-85
2023/10/03 10:29:14;;;;;;;4.30;3.90;;;20.40;99.90;;;;;;5014155;28;20450;-86
2023/10/03 10:31:44;;;;;;;5.17;3.40;;;20.20;99.90;;;;;;5013191;28;20404;-86
2023/10/03 10:34:21;;;;;;;6.23;4.50;;;20.10;99.90;;;;;;5013181;28;20499;-85
2023/10/03 10:37:02;;;;;;;6.67;4.27;;;20.00;99.90;;;;;;5028710;28;20495;-84
2023/10/03 10:40:17;;;;;;;7.57;5.33;;;19.80;99.90;;;;;;5013698;28;20380;-84
2023/10/03 10:43:00;;;;;;;5.10;4.33;;;19.70;99.90;;;;;;5029127;28;20560;-84
2023/10/03 10:45:27;;;;;;;6.47;3.93;;;19.60;99.90;;;;;;5005868;28;20530;-84
2023/10/03 10:47:55;;;;;;;4.70;4.00;;;19.60;99.90;;;;;;5033045;28;20375;-83
2023/10/03 10:50:25;;;;;;;7.03;4.17;;;19.60;99.90;;;;;;5015830;28;20396;-84
2023/10/03 10:52:53;;;;;;;6.83;4.20;;;19.50;99.90;;;;;;5000716;28;20459;-83
2023/10/03 10:55:22;;;;;;;6.23;4.63;;;19.50;99.90;;;;;;5033758;28;20493;-84
2023/10/03 10:58:08;;;;;;;4.47;3.80;;;19.50;99.90;;;;;;5019220;28;20909;-84
2023/10/03 11:00:34;;;;;;;5.20;3.07;;;;;;;;;;5035712;28;20428;-84
2023/10/03 11:03:10;;;;;;;2.93;1.60;;;;;;;;;;5036709;28;20449;-84
2023/10/03 11:05:46;;;;;;;3.30;2.00;;;;;;;;;;5037705;28;20367;-87
2023/10/03 11:08:13;;;;;;;2.80;1.97;;;;;;;;;;5036520;28;20405;-86
2023/10/03 11:10:49;;;;;;;5.03;2.40;;;;;;;;;;5034544;28;20434;-84
2023/10/03 11:13:15;;;;;;;3.10;2.07;;;;;;;;;;5035627;28;20408;-82
2023/10/03 11:15:50;;;;;;;3.53;2.10;;;;;;;;;;5037121;28;20485;-83
2023/10/03 11:18:18;;;;;;;3.97;2.67;;;;;;;;;;5032141;28;20538;-83
2023/10/03 11:20:44;;;;;;;3.40;3.10;;;;;;;;;;5016370;28;20414;-84
2023/10/03 11:23:18;;;;;;;6.13;4.20;;;;;;;;;;5005923;28;20401;-85
2023/10/03 11:25:54;;;;;;;7.00;4.60;;;;;;;;;;5017582;28;20422;-84
2023/10/03 11:28:22;;;;;;;9.63;4.83;;;16.80;99.90;;;;;;5016019;28;20423;-85
2023/10/03 11:31:05;;;;;;;11.00;5.13;;;16.70;99.90;;;;;;5015805;28;20429;-85
2023/10/03 11:33:45;;;;;;;9.23;5.60;;;16.70;99.90;;;;;;5015734;28;20393;-85
2023/10/03 11:36:12;;;;;;;5.70;5.10;;;16.60;99.90;;;;;;5018123;28;20471;-85
2023/10/03 11:38:44;;;;;;;12.80;4.90;;;16.60;99.90;;;;;;5036766;28;20405;-85
2023/10/03 11:41:10;;;;;;;6.80;5.87;;;16.60;99.90;;;;;;5018672;28;20492;-86
2023/10/03 11:43:44;;;;;;;10.80;8.13;;;16.60;99.90;;;;;;5035246;28;20411;-86
2023/10/03 11:46:11;;;;;;;6.60;6.00;;;16.60;99.90;;;;;;5034928;28;20239;-85
2023/10/03 11:48:36;;;;;;;10.53;6.40;;;16.50;99.90;;;;;;5019146;28;20425;-85
2023/10/03 11:51:02;;;;;;;10.30;6.30;;;16.50;99.90;;;;;;5002338;28;20404;-85
2023/10/03 11:53:27;;;;;;;7.73;6.10;;;16.50;99.90;;;;;;5002654;28;20205;-86
2023/10/03 11:55:53;;;;;;;8.63;7.20;;;16.50;99.90;;;;;;5018440;28;20244;-86
2023/10/03 11:58:19;;;;;;;9.47;8.50;;;16.50;99.90;;;;;;5034701;28;20214;-86
2023/10/03 12:00:45;;;;;;;11.30;9.80;;;16.50;99.90;;;;;;5018246;28;20588;-89
2023/10/03 12:03:11;;;;;;;12.87;9.43;;;16.40;99.90;;;;;;5034614;28;20228;-88
2023/10/03 12:05:45;;;;;;;13.90;11.10;;;16.30;99.90;;;;;;5018496;28;20921;-90
2023/10/03 12:08:12;;;;;;;16.87;12.50;;;16.30;99.90;;;;;;5034773;28;20420;-88
2023/10/03 12:10:41;;;;;;;16.17;13.77;;;16.20;99.90;;;;;;5002064;28;20421;-87
2023/10/03 12:13:09;;;;;;;20.20;15.83;;;16.10;99.90;;;;;;5035813;28;20908;-86
2023/10/03 12:15:36;;;;;;;20.80;14.70;;;16.10;99.90;;;;;;5034872;28;21003;-86
2023/10/03 12:18:02;;;;;;;16.17;11.73;;;16.10;99.90;;;;;;5034626;28;20413;-91
2023/10/03 12:20:28;;;;;;;13.53;11.03;;;16.10;99.90;;;;;;5034667;28;20392;-87
2023/10/03 12:22:54;;;;;;;10.00;7.80;;;16.00;99.90;;;;;;5034304;28;20392;-87
2023/10/03 12:25:27;;;;;;;8.70;4.27;;;16.00;99.90;;;;;;5035972;28;20178;-89
2023/10/03 12:27:52;;;;;;;4.07;3.37;;;15.80;99.90;;;;;;5036359;28;20425;-88
2023/10/03 12:30:18;;;;;;;4.40;4.00;;;15.60;99.90;;;;;;5034532;28;20512;-89
2023/10/03 12:32:49;;;;;;;5.30;3.97;;;15.60;99.90;;;;;;5034635;28;20208;-87
2023/10/03 12:35:15;;;;;;;5.03;3.77;;;15.50;99.90;;;;;;5033922;28;20761;-88
2023/10/03 12:37:45;;;;;;;7.07;3.53;;;15.50;99.90;;;;;;5032065;28;21272;-87
2023/10/03 12:40:18;;;;;;;5.70;2.80;;;15.50;99.90;;;;;;5014622;28;20449;-88
2023/10/03 12:42:50;;;;;;;4.07;3.30;;;15.40;99.90;;;;;;5016057;28;20397;-91
2023/10/03 12:45:17;;;;;;;8.57;3.50;;;15.40;99.90;;;;;;5014384;28;20581;-89
2023/10/03 12:47:47;;;;;;;5.10;3.60;;;15.50;99.90;;;;;;5034651;28;20464;-92
2023/10/03 12:50:24;;;;;;;4.17;3.30;;;15.50;99.90;;;;;;5035514;28;20408;-88
2023/10/03 12:52:51;;;;;;;3.60;2.70;;;15.50;99.90;;;;;;5034688;28;20468;-88
2023/10/03 12:55:19;;;;;;;6.33;3.30;;;15.50;99.90;;;;;;5033491;28;20748;-87
2023/10/03 12:57:50;;;;;;;4.43;3.63;;;15.60;99.90;;;;;;5033896;28;20452;-86
2023/10/03 13:00:20;;;;;;;4.43;4.03;;;15.60;99.90;;;;;;5014944;28;20770;-85
2023/10/03 13:02:46;;;;;;;3.83;3.53;;;15.80;99.90;;;;;;5015030;28;20497;-86